Time;durP1;ratioP1;P1;durP2;ratioP2;P2;SDS_P1;SDS_P2;PMS_P1;PMS_P2;Temp;Humidity;BMP_temperature;BMP_pressure;BME280_temperature;BME280_humidity;BME280_pressure;Samples;Min_cycle;Max_cycle;Signal;HPM_P1;HPM_P2
2022/07/02 00:02:00;;;;;;;;;;;;;;;22.76;59.47;95044.34;5056722;28;1166;-69
2022/07/02 00:04:29;;;;;;;;;;;;;;;22.73;59.98;95036.78;5056812;28;1189;-69
2022/07/02 00:06:55;;;;;;;;;;;;;;;22.67;59.92;95035.69;5090218;28;1898;-69
2022/07/02 00:09:23;;;;;;;;;;;;;;;22.64;60.48;95039.38;5056574;28;1313;-70
2022/07/02 00:11:50;;;;;;;;;;;;;;;22.66;60.35;95045.38;5057486;28;1166;-70
2022/07/02 00:14:17;;;;;;;;;;;;;;;22.62;60.13;95041.03;5057599;28;1030;-69
2022/07/02 00:16:45;;;;;;;;;;;;;;;22.54;60.27;95049.59;5057872;28;1060;-70
2022/07/02 00:19:11;;;;;;;;;;;;;;;22.53;60.47;95047.22;5057588;28;1037;-70
2022/07/02 00:21:39;;;;;;;;;;;;;;;22.45;60.48;95043.75;5056555;28;1072;-70
2022/07/02 00:24:06;;;;;;;;;;;;;;;22.42;60.73;95041.81;5057643;28;1023;-70
2022/07/02 00:26:35;;;;;;;;;;;;;;;22.46;60.92;95044.53;5056735;28;1336;-70
2022/07/02 00:29:02;;;;;;;;;;;;;;;22.46;60.96;95045.34;5056440;28;1910;-69
2022/07/02 00:31:29;;;;;;;;;;;;;;;22.43;60.70;95042.59;5056713;28;1163;-69
2022/07/02 00:33:55;;;;;;;;;;;;;;;22.37;60.60;95033.88;5056266;28;1415;-70
2022/07/02 00:36:25;;;;;;;;;;;;;;;22.32;60.68;95042.78;5056576;28;1170;-69
2022/07/02 00:38:51;;;;;;;;;;;;;;;22.35;61.00;95037.09;5056575;28;1361;-70
2022/07/02 00:41:18;;;;;;;;;;;;;;;22.31;61.44;95042.00;5056643;28;1171;-70
2022/07/02 00:43:46;;;;;;;;;;;;;;;22.30;61.59;95048.06;5056361;28;1245;-70
2022/07/02 00:46:12;;;;;;;;;;;;;;;22.32;61.31;95046.41;5057308;28;934;-69
2022/07/02 00:48:39;;;;;;;;;;;;;;;22.33;61.48;95048.00;5056046;28;1922;-69
2022/07/02 00:51:05;;;;;;;;;;;;;;;22.30;61.56;95048.84;5056992;28;982;-69
2022/07/02 00:53:32;;;;;;;;;;;;;;;22.28;62.16;95056.91;5057062;28;976;-69
2022/07/02 00:55:58;;;;;;;;;;;;;;;22.26;61.91;95047.31;5056302;28;1178;-69
2022/07/02 00:58:25;;;;;;;;;;;;;;;22.26;61.85;95062.19;5056568;28;1163;-70
2022/07/02 01:00:53;;;;;;;;;;;;;;;22.24;61.60;95061.81;5090134;28;1219;-71
2022/07/02 01:03:19;;;;;;;;;;;;;;;22.20;62.07;95055.47;5056457;28;1182;-71
2022/07/02 01:05:46;;;;;;;;;;;;;;;22.18;61.93;95054.28;5057033;28;1140;-70
2022/07/02 01:10:56;;;;;;;;;;;;;;;22.17;61.85;95045.06;5089903;28;1370;-70
2022/07/02 01:13:23;;;;;;;;;;;;;;;22.19;61.52;95048.25;5055802;28;1134;-70
2022/07/02 01:15:49;;;;;;;;;;;;;;;22.20;61.23;95038.59;5055555;28;1217;-70
2022/07/02 01:18:18;;;;;;;;;;;;;;;22.18;61.33;95046.66;5055962;28;1151;-69
2022/07/02 01:20:44;;;;;;;;;;;;;;;22.13;61.19;95047.13;5056080;28;1071;-69
2022/07/02 01:23:12;;;;;;;;;;;;;;;22.07;61.17;95046.81;5055502;28;1074;-69
2022/07/02 01:25:39;;;;;;;;;;;;;;;;;;5055344;28;1415;-70
2022/07/02 01:28:05;;;;;;;;;;;;;;;22.02;62.21;95035.28;5055754;28;1971;-70
2022/07/02 01:30:32;;;;;;;;;;;;;;;22.00;61.93;95046.94;5055683;28;1196;-70
2022/07/02 01:32:58;;;;;;;;;;;;;;;22.02;61.81;95035.28;5055292;28;1130;-70
2022/07/02 01:35:25;;;;;;;;;;;;;;;;;;5055742;28;1055;-70
2022/07/02 01:37:52;;;;;;;;;;;;;;;22.05;62.18;95040.84;5056591;28;1313;-69
2022/07/02 01:40:20;;;;;;;;;;;;;;;22.00;62.46;95041.31;5090137;28;1170;-69
2022/07/02 01:42:47;;;;;;;;;;;;;;;21.98;62.50;95043.00;5056550;28;1010;-69
2022/07/02 01:45:13;;;;;;;;;;;;;;;21.93;62.39;95049.88;5056094;28;1172;-69
2022/07/02 01:47:40;;;;;;;;;;;;;;;21.90;63.22;95036.72;5056112;28;1898;-69
2022/07/02 01:50:07;;;;;;;;;;;;;;;21.86;63.17;95041.59;5056221;28;1305;-69
2022/07/02 01:52:33;;;;;;;;;;;;;;;21.86;62.87;95041.59;5056698;28;1237;-68
2022/07/02 01:55:00;;;;;;;;;;;;;;;21.87;62.78;95043.97;5056005;28;1163;-68
2022/07/02 01:57:29;;;;;;;;;;;;;;;21.86;62.71;95038.78;5055798;28;1194;-68
2022/07/02 01:59:56;;;;;;;;;;;;;;;21.80;62.38;95046.88;5055933;28;1147;-68
2022/07/02 02:02:22;;;;;;;;;;;;;;;21.76;63.08;95042.56;5056638;28;978;-68
2022/07/02 02:04:49;;;;;;;;;;;;;;;21.76;63.47;95039.75;5055706;28;1270;-68
2022/07/02 02:07:15;;;;;;;;;;;;;;;21.74;62.98;95050.59;5055432;28;1910;-68
2022/07/02 02:09:42;;;;;;;;;;;;;;;21.71;63.57;95037.41;5056370;28;998;-70
2022/07/02 02:12:09;;;;;;;;;;;;;;;21.69;64.01;95046.28;5056075;28;988;-70
2022/07/02 02:14:37;;;;;;;;;;;;;;;21.67;63.84;95036.69;5056044;28;785;-69
2022/07/02 02:17:04;;;;;;;;;;;;;;;21.66;63.80;95035.09;5058173;28;1203;-70
2022/07/02 02:19:31;;;;;;;;;;;;;;;21.59;63.90;95027.59;5060211;28;1239;-69
2022/07/02 02:21:57;;;;;;;;;;;;;;;21.53;63.65;95032.09;5061208;28;798;-70
2022/07/02 02:24:24;;;;;;;;;;;;;;;21.48;63.88;95029.78;5060610;28;1335;-69
2022/07/02 02:26:50;;;;;;;;;;;;;;;21.44;63.76;95043.06;5059866;28;1574;-69
2022/07/02 02:29:17;;;;;;;;;;;;;;;21.40;63.58;95045.91;5060868;28;1985;-69
2022/07/02 02:31:45;;;;;;;;;;;;;;;21.34;63.75;95045.59;5060805;28;1054;-70
2022/07/02 02:34:12;;;;;;;;;;;;;;;21.31;64.26;95054.81;5060800;28;1063;-70
2022/07/02 02:36:38;;;;;;;;;;;;;;;21.33;64.46;95055.22;5060742;28;1133;-70
2022/07/02 02:39:05;;;;;;;;;;;;;;;21.30;64.25;95058.06;5059489;28;1244;-70
2022/07/02 02:41:31;;;;;;;;;;;;;;;21.27;64.44;95056.09;5060841;28;974;-70
2022/07/02 02:43:58;;;;;;;;;;;;;;;21.24;64.71;95057.75;5060387;28;987;-70
2022/07/02 02:46:24;;;;;;;;;;;;;;;21.19;64.95;95069.44;5059929;28;1150;-70
2022/07/02 02:48:52;;;;;;;;;;;;;;;21.20;64.93;95076.63;5059263;28;1910;-70
2022/07/02 02:51:19;;;;;;;;;;;;;;;21.21;65.11;95075.44;5059669;28;1154;-69
2022/07/02 02:53:45;;;;;;;;;;;;;;;21.22;65.23;95081.81;5059944;28;1185;-69
2022/07/02 02:56:12;;;;;;;;;;;;;;;21.21;65.63;95075.44;5059366;28;1411;-69
2022/07/02 02:58:40;;;;;;;;;;;;;;;21.20;65.85;95087.03;5060235;28;1049;-69
2022/07/02 03:01:06;;;;;;;;;;;;;;;21.19;65.61;95085.47;5058924;28;1249;-71
2022/07/02 03:03:33;;;;;;;;;;;;;;;21.24;64.91;95084.97;5059018;28;994;-70
2022/07/02 03:06:01;;;;;;;;;;;;;;;21.25;65.40;95095.78;5058587;28;1065;-70
2022/07/02 03:08:27;;;;;;;;;;;;;;;21.22;65.48;95093.84;5058938;28;1910;-70
2022/07/02 03:10:54;;;;;;;;;;;;;;;21.21;65.67;95097.06;5058693;28;1151;-70
2022/07/02 03:13:20;;;;;;;;;;;;;;;21.22;65.71;95096.63;5059025;28;978;-70
2022/07/02 03:15:47;;;;;;;;;;;;;;;21.20;65.27;95090.63;5057990;28;1241;-71
2022/07/02 03:18:14;;;;;;;;;;;;;;;21.19;65.28;95089.06;5058919;28;943;-70
2022/07/02 03:20:40;;;;;;;;;;;;;;;21.17;65.18;95091.50;5058841;28;1006;-70
2022/07/02 03:23:08;;;;;;;;;;;;;;;21.14;65.50;95090.34;5057763;28;1080;-70
2022/07/02 03:25:35;;;;;;;;;;;;;;;21.12;65.37;95089.94;5059420;28;1022;-70
2022/07/02 03:28:01;;;;;;;;;;;;;;;21.08;65.09;95097.63;5057827;28;1910;-70
2022/07/02 03:30:28;;;;;;;;;;;;;;;21.04;65.19;95102.47;5057506;28;1276;-70
2022/07/02 03:32:54;;;;;;;;;;;;;;;21.04;65.38;95098.88;5057610;28;1059;-70
2022/07/02 03:35:21;;;;;;;;;;;;;;;21.01;65.44;95105.31;5057576;28;1143;-70
2022/07/02 03:37:47;;;;;;;;;;;;;;;20.99;65.89;95104.94;5057207;28;1459;-70
2022/07/02 03:40:15;;;;;;;;;;;;;;;20.97;65.99;95105.38;5057559;28;1155;-70
2022/07/02 03:42:42;;;;;;;;;;;;;;;21.01;65.73;95116.53;5057759;28;1283;-70
2022/07/02 03:45:09;;;;;;;;;;;;;;;21.05;66.25;95112.47;5057702;28;1238;-70
2022/07/02 03:47:35;;;;;;;;;;;;;;;21.07;66.26;95110.06;5057342;28;1181;-70
2022/07/02 03:50:02;;;;;;;;;;;;;;;21.10;66.23;95117.63;5056891;28;1906;-70
2022/07/02 03:52:28;;;;;;;;;;;;;;;21.11;65.37;95118.41;5057078;28;1316;-70
2022/07/02 03:54:54;;;;;;;;;;;;;;;21.11;65.48;95112.81;5057577;28;1312;-69
2022/07/02 03:57:22;;;;;;;;;;;;;;;21.11;64.95;95115.63;5057912;28;1253;-69
2022/07/02 03:59:49;;;;;;;;;;;;;;;21.11;66.36;95112.81;5058316;28;797;-70
2022/07/02 04:02:15;;;;;;;;;;;;;;;21.12;66.08;95125.63;5057750;28;1006;-69
2022/07/02 04:04:42;;;;;;;;;;;;;;;21.14;66.23;95123.19;5056812;28;1267;-69
2022/07/02 04:07:08;;;;;;;;;;;;;;;21.16;65.50;95120.75;5057269;28;1234;-68
2022/07/02 04:09:35;;;;;;;;;;;;;;;21.19;65.63;95117.09;5057136;28;1991;-68
2022/07/02 04:12:01;;;;;;;;;;;;;;;21.23;65.35;95128.28;5057517;28;1236;-68
2022/07/02 04:14:29;;;;;;;;;;;;;;;21.24;65.75;95121.44;5056877;28;1238;-69
2022/07/02 04:16:56;;;;;;;;;;;;;;;21.21;65.99;95125.91;5056907;28;1235;-68
2022/07/02 04:19:22;;;;;;;;;;;;;;;21.18;66.06;95118.34;5056508;28;1090;-69
2022/07/02 04:21:49;;;;;;;;;;;;;;;21.17;65.76;95122.34;5056840;28;1146;-70
2022/07/02 04:24:15;;;;;;;;;;;;;;;21.20;65.22;95126.31;5057463;28;968;-70
2022/07/02 04:26:42;;;;;;;;;;;;;;;21.23;65.41;95131.09;5056740;28;1225;-70
2022/07/02 04:29:08;;;;;;;;;;;;;;;21.25;64.68;95132.25;5056719;28;1887;-70
2022/07/02 04:31:36;;;;;;;;;;;;;;;21.30;64.77;95133.78;5057470;28;951;-70
2022/07/02 04:34:03;;;;;;;;;;;;;;;21.34;65.01;95128.97;5057111;28;1061;-70
2022/07/02 04:36:29;;;;;;;;;;;;;;;21.35;65.17;95131.38;5057884;28;1175;-70
2022/07/02 04:38:56;;;;;;;;;;;;;;;21.35;65.15;95122.94;5057003;28;1123;-70
2022/07/02 04:41:22;;;;;;;;;;;;;;;21.41;65.18;95133.69;5057341;28;1159;-70
2022/07/02 04:43:49;;;;;;;;;;;;;;;21.45;65.34;95126.00;5057378;28;1229;-70
2022/07/02 04:46:15;;;;;;;;;;;;;;;21.51;65.50;95139.16;5056689;28;1179;-70
2022/07/02 04:48:43;;;;;;;;;;;;;;;21.56;65.48;95126.66;5056914;28;1914;-70
2022/07/02 04:51:10;;;;;;;;;;;;;;;21.61;65.13;95132.59;5056858;28;1165;-70
2022/07/02 04:53:36;;;;;;;;;;;;;;;21.67;64.57;95140.53;5056784;28;1014;-69
2022/07/02 04:56:03;;;;;;;;;;;;;;;21.68;64.86;95139.31;5057116;28;939;-70
2022/07/02 04:58:29;;;;;;;;;;;;;;;21.71;64.93;95141.28;5056269;28;1181;-69
2022/07/02 05:00:56;;;;;;;;;;;;;;;21.72;64.59;95148.50;5056716;28;1009;-69
2022/07/02 05:03:23;;;;;;;;;;;;;;;21.74;65.27;95146.81;5055692;28;1163;-69
2022/07/02 05:05:51;;;;;;;;;;;;;;;21.78;65.38;95147.56;5055797;28;1081;-69
2022/07/02 05:08:23;;;;;;;;;;;;;;;21.83;65.04;95140.69;5056793;28;1910;-69
2022/07/02 05:10:49;;;;;;;;;;;;;;;21.88;64.02;95137.41;5056192;28;1268;-69
2022/07/02 05:13:16;;;;;;;;;;;;;;;21.94;63.42;95132.91;5056179;28;1123;-69
2022/07/02 05:15:43;;;;;;;;;;;;;;;21.96;63.24;95136.06;5055589;28;1185;-69
2022/07/02 05:18:10;;;;;;;;;;;;;;;21.95;63.23;95134.47;5056515;28;1224;-69
2022/07/02 05:20:36;;;;;;;;;;;;;;;21.98;63.13;95138.47;5056992;28;1029;-69
2022/07/02 05:23:04;;;;;;;;;;;;;;;21.99;63.98;95140.84;5056523;28;1069;-68
2022/07/02 05:25:31;;;;;;;;;;;;;;;22.03;64.30;95138.75;5056690;28;918;-69
2022/07/02 05:27:57;;;;;;;;;;;;;;;22.06;64.19;95137.91;5055779;28;1326;-69
2022/07/02 05:30:24;;;;;;;;;;;;;;;22.07;64.36;95145.09;5056202;28;1985;-69
2022/07/02 05:32:51;;;;;;;;;;;;;;;22.07;64.26;95142.31;5056558;28;988;-69
2022/07/02 05:35:17;;;;;;;;;;;;;;;22.11;63.83;95151.50;5056509;28;990;-69
2022/07/02 05:37:44;;;;;;;;;;;;;;;22.13;63.87;95151.06;5056618;28;1018;-69
2022/07/02 05:40:12;;;;;;;;;;;;;;;22.15;63.72;95145.03;5055845;28;1175;-69
2022/07/02 05:42:39;;;;;;;;;;;;;;;22.18;63.82;95150.59;5055530;28;1076;-69
2022/07/02 05:45:06;;;;;;;;;;;;;;;22.25;63.13;95155.28;5055846;28;1068;-69
2022/07/02 05:47:32;;;;;;;;;;;;;;;22.32;62.86;95158.78;5056436;28;995;-69
2022/07/02 05:49:59;;;;;;;;;;;;;;;22.38;62.83;95164.72;5057060;28;1898;-69
2022/07/02 05:52:25;;;;;;;;;;;;;;;22.42;62.90;95154.22;5060108;28;1136;-69
2022/07/02 05:54:53;;;;;;;;;;;;;;;22.45;62.72;95156.16;5059416;28;1268;-68
2022/07/02 05:57:21;;;;;;;;;;;;;;;22.50;62.91;95155.66;5059452;28;1250;-68
2022/07/02 05:59:47;;;;;;;;;;;;;;;22.56;62.75;95156.75;5059557;28;1281;-69
2022/07/02 06:02:14;;;;;;;;;;;;;;;22.63;62.52;95150.22;5060257;28;1097;-69
2022/07/02 06:04:40;;;;;;;;;;;;;;;22.69;62.41;95154.13;5060661;28;955;-69
2022/07/02 06:09:51;;;;;;;;;;;;;;;22.73;61.62;95154.03;5092872;28;1906;-70
2022/07/02 06:12:17;;;;;;;;;;;;;;;22.78;61.77;95159.97;5060268;28;955;-69
2022/07/02 06:14:45;;;;;;;;;;;;;;;22.91;61.67;95160.13;5059857;28;841;-69
2022/07/02 06:17:12;;;;;;;;;;;;;;;23.08;61.11;95160.25;5058685;28;1356;-69
2022/07/02 06:19:39;;;;;;;;;;;;;;;23.13;60.99;95162.56;5060041;28;975;-69
2022/07/02 06:22:06;;;;;;;;;;;;;;;23.11;61.58;95165.03;5058562;28;1060;-69
2022/07/02 06:24:32;;;;;;;;;;;;;;;23.07;61.28;95162.28;5059806;28;1005;-69
2022/07/02 06:26:59;;;;;;;;;;;;;;;23.19;61.21;95161.63;5059374;28;1520;-69
2022/07/02 06:29:25;;;;;;;;;;;;;;;23.34;60.63;95164.16;5059741;28;1977;-69
2022/07/02 06:31:54;;;;;;;;;;;;;;;23.35;59.95;95163.72;5059433;28;1023;-69
2022/07/02 06:34:21;;;;;;;;;;;;;;;23.30;60.04;95170.63;5059578;28;1070;-68
2022/07/02 06:36:47;;;;;;;;;;;;;;;23.26;60.55;95169.13;5059701;28;998;-68
2022/07/02 06:39:14;;;;;;;;;;;;;;;23.27;60.91;95167.91;5058770;28;1361;-69
2022/07/02 06:44:24;;;;;;;;;;;;;;;23.25;59.75;95161.91;5059519;28;917;-69
2022/07/02 06:46:51;;;;;;;;;;;;;;;23.23;59.76;95165.16;5059619;28;962;-69
2022/07/02 06:49:19;;;;;;;;;;;;;;;23.22;60.29;95165.59;5059103;28;1971;-69
2022/07/02 06:51:46;;;;;;;;;;;;;;;23.23;60.71;95158.75;5058401;28;1131;-69
2022/07/02 06:54:12;;;;;;;;;;;;;;;23.25;61.04;95168.34;5058366;28;1346;-69
2022/07/02 06:56:39;;;;;;;;;;;;;;;23.32;60.73;95161.00;5058484;28;1262;-69
2022/07/02 06:59:05;;;;;;;;;;;;;;;23.38;60.52;95171.28;5059230;28;927;-69
2022/07/02 07:01:32;;;;;;;;;;;;;;;23.40;60.37;95160.41;5057022;28;1043;-69
2022/07/02 07:03:58;;;;;;;;;;;;;;;23.42;60.75;95165.56;5059167;28;994;-69
2022/07/02 07:06:27;;;;;;;;;;;;;;;23.48;60.44;95166.66;5057898;28;1151;-69
2022/07/02 07:08:53;;;;;;;;;;;;;;;23.51;61.49;95177.84;5058046;28;1899;-68
2022/07/02 07:11:20;;;;;;;;;;;;;;;23.51;61.42;95175.03;5058707;28;1070;-68
2022/07/02 07:13:47;;;;;;;;;;;;;;;23.57;60.90;95169.69;5058754;28;1193;-68
2022/07/02 07:16:13;;;;;;;;;;;;;;;23.72;60.50;95173.03;5057702;28;1403;-68
2022/07/02 07:18:40;;;;;;;;;;;;;;;23.87;59.89;95176.31;5058664;28;917;-69
2022/07/02 07:21:06;;;;;;;;;;;;;;;23.93;59.90;95177.34;5057910;28;1238;-69
2022/07/02 07:23:34;;;;;;;;;;;;;;;23.93;60.00;95183.00;5058827;28;1046;-69
2022/07/02 07:26:01;;;;;;;;;;;;;;;23.90;59.81;95170.59;5058769;28;1129;-68
2022/07/02 07:28:28;;;;;;;;;;;;;;;23.94;59.84;95176.94;5057949;28;1193;-69
2022/07/02 07:30:54;;;;;;;;;;;;;;;23.95;60.07;95175.69;5057842;28;1913;-69
2022/07/02 07:33:21;;;;;;;;;;;;;;;24.01;60.12;95182.41;5058597;28;1042;-68
2022/07/02 07:35:47;;;;;;;;;;;;;;;24.06;60.17;95181.09;5058764;28;1041;-69
2022/07/02 07:38:14;;;;;;;;;;;;;;;24.08;60.28;95178.63;5057766;28;1072;-70
2022/07/02 07:40:42;;;;;;;;;;;;;;;24.17;59.83;95180.84;5057284;28;1250;-69
2022/07/02 07:43:08;;;;;;;;;;;;;;;24.22;59.64;95188.75;5057245;28;1284;-70
2022/07/02 07:45:35;;;;;;;;;;;;;;;24.25;59.49;95180.22;5057079;28;1384;-69
2022/07/02 07:48:02;;;;;;;;;;;;;;;24.35;58.96;95177.59;5057537;28;1198;-70
2022/07/02 07:50:28;;;;;;;;;;;;;;;24.41;58.77;95173.03;5057080;28;1902;-68
2022/07/02 07:52:55;;;;;;;;;;;;;;;24.50;58.39;95176.81;5056843;28;1079;-69
2022/07/02 07:55:21;;;;;;;;;;;;;;;24.58;57.90;95179.44;5057960;28;943;-70
2022/07/02 07:57:49;;;;;;;;;;;;;;;24.61;57.83;95181.38;5057923;28;931;-69
2022/07/02 08:00:16;;;;;;;;;;;;;;;24.64;57.42;95172.06;5057488;28;1258;-70
2022/07/02 08:02:42;;;;;;;;;;;;;;;24.68;57.61;95169.94;5057541;28;1074;-70
2022/07/02 08:05:09;;;;;;;;;;;;;;;24.73;57.97;95169.41;5056979;28;1123;-70
2022/07/02 08:07:36;;;;;;;;;;;;;;;24.73;57.35;95172.22;5056501;28;1215;-70
2022/07/02 08:10:02;;;;;;;;;;;;;;;24.73;57.36;95172.22;5056650;28;1969;-70
2022/07/02 08:12:29;;;;;;;;;;;;;;;24.77;57.27;95181.38;5056638;28;1164;-70
2022/07/02 08:14:59;;;;;;;;;;;;;;;24.77;57.40;95174.97;5056774;28;1175;-69
2022/07/02 08:17:25;;;;;;;;;;;;;;;24.80;57.49;95179.69;5057524;28;1226;-69
2022/07/02 08:19:52;;;;;;;;;;;;;;;24.81;57.63;95172.84;5057633;28;1035;-70
2022/07/02 08:22:19;;;;;;;;;;;;;;;24.84;57.39;95175.56;5057707;28;1709;-70
2022/07/02 08:24:46;;;;;;;;;;;;;;;24.87;57.29;95171.81;5056487;28;1079;-70
2022/07/02 08:27:12;;;;;;;;;;;;;;;24.90;57.60;95179.41;5056597;28;1194;-70
2022/07/02 08:29:39;;;;;;;;;;;;;;;24.94;57.49;95177.28;5057000;28;1961;-70
2022/07/02 08:32:08;;;;;;;;;;;;;;;25.03;57.89;95176.66;5056978;28;1166;-70
2022/07/02 08:34:35;;;;;;;;;;;;;;;25.14;57.99;95180.00;5056315;28;1161;-70
2022/07/02 08:37:02;;;;;;;;;;;;;;;25.27;57.19;95177.22;5057400;28;941;-70
2022/07/02 08:39:28;;;;;;;;;;;;;;;25.35;56.57;95181.44;5056248;28;1130;-70
2022/07/02 08:41:54;;;;;;;;;;;;;;;25.48;56.07;95183.50;5057102;28;1033;-70
2022/07/02 08:44:21;;;;;;;;;;;;;;;25.64;55.57;95180.63;5056395;28;1064;-70
2022/07/02 08:46:48;;;;;;;;;;;;;;;25.64;55.63;95186.25;5055895;28;1072;-70
2022/07/02 08:49:16;;;;;;;;;;;;;;;25.67;56.13;95193.81;5057263;28;999;-70
2022/07/02 08:51:43;;;;;;;;;;;;;;;25.74;56.55;95184.34;5055845;28;1993;-71
2022/07/02 08:54:09;;;;;;;;;;;;;;;25.87;55.06;95185.19;5056585;28;1018;-71
2022/07/02 08:56:35;;;;;;;;;;;;;;;25.88;54.11;95181.13;5056102;28;1076;-71
2022/07/02 08:59:02;;;;;;;;;;;;;;;25.88;55.97;95195.25;5056928;28;979;-70
2022/07/02 09:01:29;;;;;;;;;;;;;;;25.88;56.85;95190.38;5055915;28;1139;-71
2022/07/02 09:03:55;;;;;;;;;;;;;;;25.95;55.46;95188.59;5056459;28;1270;-70
2022/07/02 09:06:28;;;;;;;;;;;;;;;26.00;55.93;95188.03;5056416;28;1227;-71
2022/07/02 09:08:54;;;;;;;;;;;;;;;26.12;55.18;95187.25;5056154;28;1234;-70
2022/07/02 09:11:21;;;;;;;;;;;;;;;26.31;54.69;95189.06;5055839;28;2013;-71
2022/07/02 09:13:47;;;;;;;;;;;;;;;26.33;55.56;95189.41;5055672;28;1226;-70
2022/07/02 09:16:14;;;;;;;;;;;;;;;26.34;55.49;95176.84;5055403;28;1227;-70
2022/07/02 09:18:40;;;;;;;;;;;;;;;26.37;55.72;95175.16;5055521;28;1063;-70
2022/07/02 09:21:07;;;;;;;;;;;;;;;26.36;55.00;95177.19;5055665;28;1315;-71
2022/07/02 09:23:34;;;;;;;;;;;;;;;26.48;54.41;95174.84;5055474;28;1076;-71
2022/07/02 09:26:04;;;;;;;;;;;;;;;26.61;53.85;95169.94;5055015;28;1197;-70
2022/07/02 09:28:30;;;;;;;;;;;;;;;26.71;52.73;95170.81;5055400;28;1146;-71
2022/07/02 09:31:02;;;;;;;;;;;;;;;26.72;52.73;95170.34;5055924;28;1971;-70
2022/07/02 09:33:30;;;;;;;;;;;;;;;26.83;51.60;95173.59;5055647;28;1080;-70
2022/07/02 09:35:57;;;;;;;;;;;;;;;27.03;53.52;95167.66;5055664;28;1333;-70
2022/07/02 09:38:23;;;;;;;;;;;;;;;27.04;51.97;95165.63;5055650;28;1206;-70
2022/07/02 09:40:55;;;;;;;;;;;;;;;27.02;51.79;95173.81;5055635;28;1230;-71
2022/07/02 09:43:25;;;;;;;;;;;;;;;27.11;51.94;95174.69;5055482;28;1319;-70
2022/07/02 09:45:52;;;;;;;;;;;;;;;27.07;51.38;95171.16;5088720;28;1160;-70
2022/07/02 09:48:18;;;;;;;;;;;;;;;27.03;51.25;95162.00;5089138;28;1279;-71
2022/07/02 09:50:45;;;;;;;;;;;;;;;27.09;50.35;95165.84;5056095;28;1898;-71
2022/07/02 09:53:12;;;;;;;;;;;;;;;27.22;50.29;95159.34;5055456;28;1054;-71
2022/07/02 09:55:38;;;;;;;;;;;;;;;27.25;50.62;95162.06;5054923;28;1272;-70
2022/07/02 09:58:06;;;;;;;;;;;;;;;27.33;51.53;95159.75;5056017;28;1046;-70
2022/07/02 10:00:34;;;;;;;;;;;;;;;27.34;50.30;95152.84;5055995;28;758;-71
2022/07/02 10:03:00;;;;;;;;;;;;;;;27.43;50.32;95154.97;5055364;28;1174;-71
2022/07/02 10:05:28;;;;;;;;;;;;;;;27.43;50.06;95150.06;5055119;28;1194;-70
2022/07/02 10:07:55;;;;;;;;;;;;;;;27.41;50.54;95143.28;5056389;28;991;-69
2022/07/02 10:10:23;;;;;;;;;;;;;;;27.23;50.01;95147.56;5056179;28;1993;-69
2022/07/02 10:12:50;;;;;;;;;;;;;;;27.24;49.87;95145.53;5055311;28;1072;-71
2022/07/02 10:15:18;;;;;;;;;;;;;;;27.26;50.56;95138.16;5056349;28;939;-70
2022/07/02 10:17:44;;;;;;;;;;;;;;;27.16;49.03;95142.16;5055835;28;1213;-70
2022/07/02 10:20:11;;;;;;;;;;;;;;;27.06;49.31;95135.63;5055712;28;1104;-71
2022/07/02 10:22:37;;;;;;;;;;;;;;;27.06;48.51;95132.00;5056413;28;994;-71
2022/07/02 10:25:04;;;;;;;;;;;;;;;27.07;47.53;95133.56;5056192;28;978;-70
2022/07/02 10:27:31;;;;;;;;;;;;;;;27.01;47.98;95129.75;5055321;28;1093;-70
2022/07/02 10:29:57;;;;;;;;;;;;;;;27.15;47.29;95125.63;5056417;28;1969;-70
2022/07/02 10:32:27;;;;;;;;;;;;;;;27.16;47.82;95121.56;5056671;28;951;-71
2022/07/02 10:34:56;;;;;;;;;;;;;;;27.25;48.37;95119.59;5055351;28;1443;-70
2022/07/02 10:37:22;;;;;;;;;;;;;;;27.40;51.88;95131.16;5056237;28;1127;-70
2022/07/02 10:39:49;;;;;;;;;;;;;;;27.44;50.95;95129.00;5058479;28;1264;-70
2022/07/02 10:42:15;;;;;;;;;;;;;;;27.35;48.70;95124.06;5059233;28;1081;-70
2022/07/02 10:44:44;;;;;;;;;;;;;;;27.19;48.57;95132.75;5058654;28;1163;-70
2022/07/02 10:47:19;;;;;;;;;;;;;;;27.12;47.87;95133.00;5059059;28;1058;-71
2022/07/02 10:49:47;;;;;;;;;;;;;;;27.24;47.76;95126.50;5058987;28;1031;-71
2022/07/02 10:52:14;;;;;;;;;;;;;;;27.35;48.57;95126.13;5058809;28;1902;-71
2022/07/02 10:54:43;;;;;;;;;;;;;;;27.41;48.21;95123.47;5058143;28;1210;-71
2022/07/02 10:57:15;;;;;;;;;;;;;;;27.45;47.32;95119.25;5058473;28;1280;-71
2022/07/02 10:59:42;;;;;;;;;;;;;;;27.65;47.45;95116.06;5059807;28;1003;-70
2022/07/02 11:02:09;;;;;;;;;;;;;;;28.09;46.90;95113.16;5057951;28;1376;-70
2022/07/02 11:04:38;;;;;;;;;;;;;;;28.13;46.41;95108.13;5058512;28;1277;-70
2022/07/02 11:07:10;;;;;;;;;;;;;;;28.11;49.96;95104.19;5058386;28;1229;-70
2022/07/02 11:09:47;;;;;;;;;;;;;;;28.01;47.47;95109.81;5057703;28;1065;-70
2022/07/02 11:12:13;;;;;;;;;;;;;;;28.10;45.66;95100.53;5059114;28;1918;-72
2022/07/02 11:14:40;;;;;;;;;;;;;;;27.92;45.82;95111.81;5058155;28;1239;-70
2022/07/02 11:17:06;;;;;;;;;;;;;;;27.73;45.78;95100.34;5057582;28;1175;-70
2022/07/02 11:19:33;;;;;;;;;;;;;;;27.58;46.21;95100.13;5057699;28;1162;-70
2022/07/02 11:21:59;;;;;;;;;;;;;;;27.50;45.92;95101.66;5058897;28;998;-70
2022/07/02 11:24:28;;;;;;;;;;;;;;;27.47;46.38;95107.47;5057966;28;1126;-70
2022/07/02 11:26:54;;;;;;;;;;;;;;;27.38;46.83;95104.56;5058605;28;1039;-71
2022/07/02 11:29:21;;;;;;;;;;;;;;;27.36;46.56;95102.19;5058193;28;1191;-71
2022/07/02 11:31:48;;;;;;;;;;;;;;;27.35;46.28;95109.13;5057507;28;1977;-71
2022/07/02 11:34:15;;;;;;;;;;;;;;;27.30;47.10;95112.53;5058118;28;1027;-70
2022/07/02 11:36:42;;;;;;;;;;;;;;;27.22;46.68;95106.34;5058135;28;1007;-70
2022/07/02 11:39:08;;;;;;;;;;;;;;;27.15;47.48;95108.66;5058381;28;976;-70
2022/07/02 11:41:37;;;;;;;;;;;;;;;27.08;47.99;95110.47;5057923;28;1001;-70
2022/07/02 11:44:13;;;;;;;;;;;;;;;27.03;48.52;95121.59;5058277;28;1026;-70
2022/07/02 11:46:39;;;;;;;;;;;;;;;26.97;48.96;95127.03;5057257;28;1145;-70
2022/07/02 11:49:13;;;;;;;;;;;;;;;26.94;49.25;95130.78;5057514;28;1070;-70
2022/07/02 11:51:39;;;;;;;;;;;;;;;26.93;50.75;95140.53;5057068;28;1913;-70
2022/07/02 11:54:07;;;;;;;;;;;;;;;26.95;54.96;95143.72;5057155;28;1313;-70
2022/07/02 11:56:38;;;;;;;;;;;;;;;26.94;54.74;95149.81;5056998;28;1170;-70
2022/07/02 11:59:08;;;;;;;;;;;;;;;26.81;54.03;95147.03;5057614;28;1246;-70
2022/07/02 12:01:34;;;;;;;;;;;;;;;26.60;53.27;95145.72;5056719;28;1215;-70
2022/07/02 12:04:02;;;;;;;;;;;;;;;26.46;52.00;95140.53;5057121;28;1389;-70
2022/07/02 12:06:29;;;;;;;;;;;;;;;26.34;52.48;95148.56;5056815;28;1185;-70
2022/07/02 12:08:56;;;;;;;;;;;;;;;26.29;52.87;95154.81;5056641;28;1171;-70
2022/07/02 12:11:23;;;;;;;;;;;;;;;26.28;52.40;95146.75;5056474;28;1975;-70
2022/07/02 12:13:51;;;;;;;;;;;;;;;26.26;50.49;95140.78;5057462;28;1046;-70
2022/07/02 12:16:19;;;;;;;;;;;;;;;26.24;50.49;95138.41;5056722;28;1248;-70
2022/07/02 12:18:56;;;;;;;;;;;;;;;26.22;51.16;95138.06;5056664;28;1165;-70
2022/07/02 12:21:23;;;;;;;;;;;;;;;26.21;51.14;95136.47;5056613;28;1149;-70
2022/07/02 12:23:50;;;;;;;;;;;;;;;26.22;51.51;95137.25;5057458;28;1045;-70
2022/07/02 12:26:20;;;;;;;;;;;;;;;26.22;52.25;95148.56;5057817;28;953;-70
2022/07/02 12:31:42;;;;;;;;;;;;;;;26.26;51.85;95143.59;5057070;28;1902;-70
2022/07/02 12:34:09;;;;;;;;;;;;;;;26.25;51.46;95150.50;5057068;28;1074;-70
2022/07/02 12:36:44;;;;;;;;;;;;;;;26.22;54.45;95154.22;5056954;28;1078;-70
2022/07/02 12:39:11;;;;;;;;;;;;;;;26.14;53.84;95162.13;5057322;28;1037;-70
2022/07/02 12:41:38;;;;;;;;;;;;;;;26.11;57.42;95157.41;5056585;28;1056;-70
2022/07/02 12:44:04;;;;;;;;;;;;;;;26.02;59.29;95137.50;5057644;28;990;-69
2022/07/02 12:46:32;;;;;;;;;;;;;;;25.93;61.36;95147.47;5057119;28;963;-70
2022/07/02 12:49:00;;;;;;;;;;;;;;;25.79;62.78;95152.75;5057151;28;990;-70
2022/07/02 12:51:27;;;;;;;;;;;;;;;25.69;61.68;95154.63;5056600;28;1969;-69
2022/07/02 12:53:56;;;;;;;;;;;;;;;25.64;61.96;95153.16;5056188;28;1465;-71
2022/07/02 12:56:23;;;;;;;;;;;;;;;25.65;62.28;95151.91;5056419;28;1426;-70
2022/07/02 12:58:50;;;;;;;;;;;;;;;25.63;62.28;95148.72;5055705;28;1178;-70
2022/07/02 13:01:16;;;;;;;;;;;;;;;25.64;62.34;95152.38;5055106;28;1261;-70
2022/07/02 13:03:43;;;;;;;;;;;;;;;25.64;63.15;95150.34;5055775;28;1210;-70
2022/07/02 13:06:11;;;;;;;;;;;;;;;25.67;63.69;95142.97;5056324;28;1242;-70
2022/07/02 13:08:37;;;;;;;;;;;;;;;25.72;61.67;95145.25;5055867;28;1249;-70
2022/07/02 13:11:04;;;;;;;;;;;;;;;25.76;62.26;95148.75;5088907;28;1980;-70